CST,Max TemperatureF,Mean TemperatureF,Min TemperatureF,Max Dew PointF,MeanDew PointF,Min DewpointF,Max Humidity, Mean Humidity, Min Humidity, Max Sea Level PressureIn, Mean Sea Level PressureIn, Min Sea Level PressureIn, Max VisibilityMiles, Mean VisibilityMiles, Min VisibilityMiles, Max Wind SpeedMPH, Mean Wind SpeedMPH, Max Gust SpeedMPH,PrecipitationIn, CloudCover, Events, WindDirDegrees
2013-11-1,56,50,44,44,41,38,92,75,52,29.85,29.72,29.59,10,10,7,17,7,23,0.00,1,,248
2013-11-2,54,45,35,41,36,32,87,70,44,30.19,30.04,29.85,10,10,10,18,7,22,0.00,3,Rain,290
2013-11-3,58,44,31,37,33,30,96,68,38,30.29,30.21,30.13,10,10,10,15,5,20,0.00,0,,145
2013-11-4,59,52,46,45,40,36,73,64,52,30.20,30.13,30.07,10,10,4,16,10,24,0.00,4,Rain,153
2013-11-5,57,54,52,53,51,45,92,84,69,30.25,30.13,29.95,10,8,2,16,9,23,0.39,8,Rain,159
2013-11-6,59,47,34,57,43,31,93,85,71,30.28,30.07,29.88,10,9,2,18,11,28,0.41,6,Rain,263
2013-11-7,53,42,31,37,32,28,92,74,41,30.36,30.32,30.28,10,10,7,15,5,22,0.00,0,,269
2013-11-8,55,42,28,35,31,26,96,64,35,30.36,30.20,30.01,10,10,10,21,7,30,0.00,0,,166
2013-11-9,66,56,45,40,36,30,67,51,26,30.27,30.09,30.00,10,10,10,16,10,22,0.00,0,,252
2013-11-10,53,44,35,34,31,28,81,62,39,30.44,30.35,30.27,10,10,2,13,5,18,0.00,1,,305
2013-11-11,59,44,30,46,35,23,92,71,54,30.56,30.27,30.15,10,9,2,22,8,29,0.00,7,Rain-Snow,286
2013-11-12,34,27,19,22,17,15,92,69,47,30.80,30.71,30.57,10,10,10,15,9,21,0.00,0,,331
2013-11-13,45,32,18,19,16,13,92,56,27,30.69,30.49,30.25,10,10,7,15,6,20,0.00,0,,196
2013-11-14,55,44,33,23,20,17,57,39,23,30.24,30.10,30.01,10,10,10,21,10,26,0.00,0,,202
2013-11-15,57,49,41,43,34,24,82,61,42,30.04,29.97,29.89,10,10,10,15,8,24,0.00,4,Rain,179
2013-11-16,64,56,47,57,51,42,86,80,68,29.89,29.71,29.58,10,10,3,24,14,34,0.05,5,Rain,169
2013-11-17,74,60,45,62,50,37,86,70,42,29.97,29.60,29.34,10,10,1,37,14,53,0.24,2,Rain-Thunderstorm,229
2013-11-18,52,42,31,40,33,28,86,67,39,30.31,30.18,29.98,10,10,10,17,7,26,0.00,0,,288
2013-11-19,47,38,28,31,28,26,90,72,50,30.37,30.29,30.21,10,10,7,10,4,,0.00,0,,115
2013-11-20,45,40,35,39,34,29,89,82,76,30.21,30.12,30.02,10,9,5,15,10,21,0.11,6,Rain-Thunderstorm,136
2013-11-21,51,47,43,48,44,39,93,85,74,30.26,30.13,30.06,10,8,2,10,4,,0.19,8,Rain,141
2013-11-22,42,35,28,40,32,26,93,88,80,30.56,30.46,30.25,10,9,2,18,12,25,0.02,6,Rain,327
2013-11-23,28,22,16,26,16,10,91,71,54,30.75,30.66,30.55,10,10,10,21,10,28,0.00,0,,325
2013-11-24,29,20,12,15,11,8,84,66,42,30.77,30.63,30.40,10,10,10,9,4,,0.00,0,,166
2013-11-25,35,30,26,22,17,14,63,55,46,30.40,30.24,30.16,10,10,10,14,8,17,0.00,7,,205
2013-11-26,37,29,21,27,20,10,84,66,51,30.28,30.17,30.10,10,10,10,22,8,30,0.00,4,,303
2013-11-27,28,21,14,15,9,6,79,60,39,30.38,30.30,30.23,10,10,5,13,8,16,0.00,0,,291
2013-11-28,41,30,20,22,18,12,72,60,44,30.52,30.31,30.19,10,10,10,13,7,18,0.00,0,,263
2013-11-29,41,28,16,26,21,14,89,70,46,30.60,30.50,30.36,10,10,10,9,3,,0.00,0,,120
2013-11-30,54,42,30,36,31,25,87,72,48,30.36,30.19,30.08,10,10,7,12,6,16,0.00,0,,184